Sjobris — SLXP — position and weather

sailwx.info

Track history (hours):
 
Tides and Currents Weather Stations Pressure Air Temp Water Temp Dewpoint Dewpoint Depression Visibility Wind Speed Wind Dir Waves Ship Positions

Sjobris

Last reported at 2016-Jun-29 23:34 UTC. Time now 2016-Jun-29 23:47 UTC.
Position N 59°20' E 018°05'.

Length 38 m.

Type: Passenger vessel. MMSI: 265522700.

Date/timePositionNaut miles runAvg speedWind from/ knotsBaromVisibWave heightAir tempDewpointWater temp
2016-Jun-29 23:34N 59°20' E 018°05'0 0.0
2016-Jun-29 22:33N 59°20' E 018°05'0 0.0
2016-Jun-29 21:30N 59°20' E 018°05'0 0.0
2016-Jun-29 20:27N 59°20' E 018°05'0 0.0
2016-Jun-29 19:33N 59°20' E 018°05'0 0.0
2016-Jun-29 18:33N 59°20' E 018°05'4 0.3
2016-Jun-29 08:21N 59°20' E 018°11'3 3.9
2016-Jun-29 07:33N 59°19' E 018°05'2 0.1
2016-Jun-28 16:30N 59°19' E 018°09'2 2.2
2016-Jun-28 15:33N 59°19' E 018°05'3 0.4
2016-Jun-28 07:06N 59°20' E 018°12'4 6.6
2016-Jun-28 06:33N 59°20' E 018°05'0 0.0
2016-Jun-28 04:33N 59°20' E 018°05'0 0.0
2016-Jun-28 03:33N 59°20' E 018°04'0 0.0
2016-Jun-28 02:33N 59°20' E 018°05'0 0.0
2016-Jun-28 01:33N 59°20' E 018°04'0 0.0
2016-Jun-28 00:33N 59°20' E 018°05'0 0.0
2016-Jun-27 23:33N 59°20' E 018°05'0 0.0
2016-Jun-27 22:33N 59°20' E 018°05'0 0.0
2016-Jun-27 21:33N 59°20' E 018°04'0 0.0
2016-Jun-27 20:33N 59°20' E 018°05'0 0.0
2016-Jun-27 19:33N 59°20' E 018°05'0 0.1
2016-Jun-27 18:33N 59°20' E 018°05'3 0.3
2016-Jun-27 08:22N 59°20' E 018°11'3 4.1
2016-Jun-27 07:33N 59°19' E 018°05'1 0.1
2016-Jun-26 19:17N 59°19' E 018°07'2 2.8
2016-Jun-26 18:26N 59°20' E 018°11'0 0.0
2016-Jun-26 07:06N 59°20' E 018°11'3 6.4
2016-Jun-26 06:33N 59°20' E 018°05'0 0.0
2016-Jun-26 05:33N 59°20' E 018°05'0 0.0
2016-Jun-26 04:33N 59°20' E 018°05'0 0.0
2016-Jun-26 03:33N 59°20' E 018°05'0 0.0
2016-Jun-26 02:34N 59°20' E 018°05'0 0.0
2016-Jun-26 01:33N 59°20' E 018°05'0 0.0
2016-Jun-26 00:34N 59°20' E 018°05'0 0.0
2016-Jun-25 23:33N 59°20' E 018°05'0 0.0
2016-Jun-25 22:33N 59°20' E 018°05'0 0.0
2016-Jun-25 21:33N 59°20' E 018°05'0 0.0
2016-Jun-25 20:34N 59°20' E 018°05'0 0.0
2016-Jun-25 19:32N 59°20' E 018°05'3 0.3
2016-Jun-25 07:05N 59°20' E 018°11'3 6.4
2016-Jun-25 06:33N 59°20' E 018°05'0 0.0
2016-Jun-25 05:33N 59°20' E 018°05'0 0.0
2016-Jun-25 04:33N 59°20' E 018°05'0 0.0
2016-Jun-25 03:33N 59°20' E 018°05'0 0.0
2016-Jun-25 02:33N 59°20' E 018°05'0 0.0
2016-Jun-25 01:33N 59°20' E 018°05'0 0.0
2016-Jun-25 00:33N 59°20' E 018°05'0 0.0
2016-Jun-24 23:33N 59°20' E 018°05'0 0.0
2016-Jun-24 22:33N 59°20' E 018°05'0 0.0
2016-Jun-24 21:33N 59°20' E 018°05'0 0.0
2016-Jun-24 20:33N 59°20' E 018°05'0 0.0
2016-Jun-24 19:33N 59°20' E 018°05'0 0.0
2016-Jun-24 18:33N 59°20' E 018°05'0 0.0
2016-Jun-24 17:33N 59°20' E 018°05'0 0.0
2016-Jun-24 16:33N 59°20' E 018°05'0 0.0
2016-Jun-24 15:33N 59°20' E 018°05'0 0.0
2016-Jun-24 14:33N 59°20' E 018°05'3 0.5
2016-Jun-24 07:04N 59°20' E 018°11'3 1.4
2016-Jun-24 04:33N 59°20' E 018°05'0 0.0
2016-Jun-24 03:33N 59°20' E 018°05'0 0.0
2016-Jun-24 02:33N 59°20' E 018°05'0 0.0
2016-Jun-24 01:33N 59°20' E 018°05'0 0.0
2016-Jun-24 00:33N 59°20' E 018°05'0 0.0
2016-Jun-23 23:33N 59°20' E 018°05'0 0.0
2016-Jun-23 22:33N 59°20' E 018°05'0 0.0
2016-Jun-23 14:33N 59°19' E 018°05'0 0.4
2016-Jun-23 13:33N 59°19' E 018°05'1 0.1
2016-Jun-23 05:34N 59°20' E 018°05'0 0.0
2016-Jun-23 04:34N 59°20' E 018°05'0 0.0
2016-Jun-23 03:34N 59°20' E 018°05'0 0.0
2016-Jun-23 02:34N 59°20' E 018°05'0 0.0
2016-Jun-23 01:34N 59°20' E 018°05'0 0.0
2016-Jun-23 00:34N 59°20' E 018°05'0 0.0
2016-Jun-22 23:34N 59°20' E 018°05'0 0.0
2016-Jun-22 22:34N 59°20' E 018°05'0 0.0
2016-Jun-22 21:33N 59°20' E 018°05'0 0.0
2016-Jun-22 20:34N 59°20' E 018°05'0 0.0
2016-Jun-22 19:34N 59°20' E 018°05'0 0.4
2016-Jun-22 18:32N 59°19' E 018°05'3 0.3
2016-Jun-22 08:21N 59°19' E 018°10'3 3.2
2016-Jun-22 07:32N 59°19' E 018°05'1 0.0
2016-Jun-21 16:24N 59°19' E 018°06'1 0.8
2016-Jun-21 15:33N 59°19' E 018°05'3 0.4
2016-Jun-21 07:04N 59°20' E 018°11'3 6.8
2016-Jun-21 06:33N 59°20' E 018°05'0 0.0
2016-Jun-21 04:25N 59°20' E 018°05'0 0.0
2016-Jun-21 03:33N 59°20' E 018°05'0 0.0
2016-Jun-21 02:33N 59°20' E 018°05'0 0.0
2016-Jun-21 01:33N 59°20' E 018°05'0 0.0
2016-Jun-21 00:33N 59°20' E 018°05'0 0.0
2016-Jun-20 23:33N 59°20' E 018°05'0 0.0
2016-Jun-20 22:33N 59°20' E 018°05'0 0.0
2016-Jun-20 21:32N 59°20' E 018°05'0 0.0
2016-Jun-20 20:33N 59°20' E 018°05'0 0.0
2016-Jun-20 19:33N 59°20' E 018°05'1 0.7
2016-Jun-20 18:33N 59°19' E 018°05'3 0.3
2016-Jun-20 08:21N 59°20' E 018°11'3 3.6
2016-Jun-20 07:33N 59°19' E 018°06'  
Track history (hours):
 
Tides and Currents Weather Stations Pressure Air Temp Water Temp Dewpoint Dewpoint Depression Visibility Wind Speed Wind Dir Waves Ship Positions

Sjobris

Last reported at 2016-Jun-29 23:34 UTC. Time now 2016-Jun-29 23:47 UTC.
Position N 59°20' E 018°05'.

Length 38 m.

Type: Passenger vessel. MMSI: 265522700.

Date/timePositionNaut miles runAvg speedWind from/ knotsBaromVisibWave heightAir tempDewpointWater temp
2016-Jun-29 23:34N 59°20' E 018°05'0 0.0
2016-Jun-29 22:33N 59°20' E 018°05'0 0.0
2016-Jun-29 21:30N 59°20' E 018°05'0 0.0
2016-Jun-29 20:27N 59°20' E 018°05'0 0.0
2016-Jun-29 19:33N 59°20' E 018°05'0 0.0
2016-Jun-29 18:33N 59°20' E 018°05'4 0.3
2016-Jun-29 08:21N 59°20' E 018°11'3 3.9
2016-Jun-29 07:33N 59°19' E 018°05'2 0.1
2016-Jun-28 16:30N 59°19' E 018°09'2 2.2
2016-Jun-28 15:33N 59°19' E 018°05'3 0.4
2016-Jun-28 07:06N 59°20' E 018°12'4 6.6
2016-Jun-28 06:33N 59°20' E 018°05'0 0.0
2016-Jun-28 04:33N 59°20' E 018°05'0 0.0
2016-Jun-28 03:33N 59°20' E 018°04'0 0.0
2016-Jun-28 02:33N 59°20' E 018°05'0 0.0
2016-Jun-28 01:33N 59°20' E 018°04'0 0.0
2016-Jun-28 00:33N 59°20' E 018°05'0 0.0
2016-Jun-27 23:33N 59°20' E 018°05'0 0.0
2016-Jun-27 22:33N 59°20' E 018°05'0 0.0
2016-Jun-27 21:33N 59°20' E 018°04'0 0.0
2016-Jun-27 20:33N 59°20' E 018°05'0 0.0
2016-Jun-27 19:33N 59°20' E 018°05'0 0.1
2016-Jun-27 18:33N 59°20' E 018°05'3 0.3
2016-Jun-27 08:22N 59°20' E 018°11'3 4.1
2016-Jun-27 07:33N 59°19' E 018°05'1 0.1
2016-Jun-26 19:17N 59°19' E 018°07'2 2.8
2016-Jun-26 18:26N 59°20' E 018°11'0 0.0
2016-Jun-26 07:06N 59°20' E 018°11'3 6.4
2016-Jun-26 06:33N 59°20' E 018°05'0 0.0
2016-Jun-26 05:33N 59°20' E 018°05'0 0.0
2016-Jun-26 04:33N 59°20' E 018°05'0 0.0
2016-Jun-26 03:33N 59°20' E 018°05'0 0.0
2016-Jun-26 02:34N 59°20' E 018°05'0 0.0
2016-Jun-26 01:33N 59°20' E 018°05'0 0.0
2016-Jun-26 00:34N 59°20' E 018°05'0 0.0
2016-Jun-25 23:33N 59°20' E 018°05'0 0.0
2016-Jun-25 22:33N 59°20' E 018°05'0 0.0
2016-Jun-25 21:33N 59°20' E 018°05'0 0.0
2016-Jun-25 20:34N 59°20' E 018°05'0 0.0
2016-Jun-25 19:32N 59°20' E 018°05'3 0.3
2016-Jun-25 07:05N 59°20' E 018°11'3 6.4
2016-Jun-25 06:33N 59°20' E 018°05'0 0.0
2016-Jun-25 05:33N 59°20' E 018°05'0 0.0
2016-Jun-25 04:33N 59°20' E 018°05'0 0.0
2016-Jun-25 03:33N 59°20' E 018°05'0 0.0
2016-Jun-25 02:33N 59°20' E 018°05'0 0.0
2016-Jun-25 01:33N 59°20' E 018°05'0 0.0
2016-Jun-25 00:33N 59°20' E 018°05'0 0.0
2016-Jun-24 23:33N 59°20' E 018°05'0 0.0
2016-Jun-24 22:33N 59°20' E 018°05'0 0.0
2016-Jun-24 21:33N 59°20' E 018°05'0 0.0
2016-Jun-24 20:33N 59°20' E 018°05'0 0.0
2016-Jun-24 19:33N 59°20' E 018°05'0 0.0
2016-Jun-24 18:33N 59°20' E 018°05'0 0.0
2016-Jun-24 17:33N 59°20' E 018°05'0 0.0
2016-Jun-24 16:33N 59°20' E 018°05'0 0.0
2016-Jun-24 15:33N 59°20' E 018°05'0 0.0
2016-Jun-24 14:33N 59°20' E 018°05'3 0.5
2016-Jun-24 07:04N 59°20' E 018°11'3 1.4
2016-Jun-24 04:33N 59°20' E 018°05'0 0.0
2016-Jun-24 03:33N 59°20' E 018°05'0 0.0
2016-Jun-24 02:33N 59°20' E 018°05'0 0.0
2016-Jun-24 01:33N 59°20' E 018°05'0 0.0
2016-Jun-24 00:33N 59°20' E 018°05'0 0.0
2016-Jun-23 23:33N 59°20' E 018°05'0 0.0
2016-Jun-23 22:33N 59°20' E 018°05'0 0.0
2016-Jun-23 14:33N 59°19' E 018°05'0 0.4
2016-Jun-23 13:33N 59°19' E 018°05'1 0.1
2016-Jun-23 05:34N 59°20' E 018°05'0 0.0
2016-Jun-23 04:34N 59°20' E 018°05'0 0.0
2016-Jun-23 03:34N 59°20' E 018°05'0 0.0
2016-Jun-23 02:34N 59°20' E 018°05'0 0.0
2016-Jun-23 01:34N 59°20' E 018°05'0 0.0
2016-Jun-23 00:34N 59°20' E 018°05'0 0.0
2016-Jun-22 23:34N 59°20' E 018°05'0 0.0
2016-Jun-22 22:34N 59°20' E 018°05'0 0.0
2016-Jun-22 21:33N 59°20' E 018°05'0 0.0
2016-Jun-22 20:34N 59°20' E 018°05'0 0.0
2016-Jun-22 19:34N 59°20' E 018°05'0 0.4
2016-Jun-22 18:32N 59°19' E 018°05'3 0.3
2016-Jun-22 08:21N 59°19' E 018°10'3 3.2
2016-Jun-22 07:32N 59°19' E 018°05'1 0.0
2016-Jun-21 16:24N 59°19' E 018°06'1 0.8
2016-Jun-21 15:33N 59°19' E 018°05'3 0.4
2016-Jun-21 07:04N 59°20' E 018°11'3 6.8
2016-Jun-21 06:33N 59°20' E 018°05'0 0.0
2016-Jun-21 04:25N 59°20' E 018°05'0 0.0
2016-Jun-21 03:33N 59°20' E 018°05'0 0.0
2016-Jun-21 02:33N 59°20' E 018°05'0 0.0
2016-Jun-21 01:33N 59°20' E 018°05'0 0.0
2016-Jun-21 00:33N 59°20' E 018°05'0 0.0
2016-Jun-20 23:33N 59°20' E 018°05'0 0.0
2016-Jun-20 22:33N 59°20' E 018°05'0 0.0
2016-Jun-20 21:32N 59°20' E 018°05'0 0.0
2016-Jun-20 20:33N 59°20' E 018°05'0 0.0
2016-Jun-20 19:33N 59°20' E 018°05'1 0.7
2016-Jun-20 18:33N 59°19' E 018°05'3 0.3
2016-Jun-20 08:21N 59°20' E 018°11'3 3.6
2016-Jun-20 07:33N 59°19' E 018°06'  

Dump ship's entire track history